createdAt,value
2023-01-05T00:01:40.645Z,7.68
2023-01-05T00:04:07.966Z,6.93
2023-01-05T00:06:35.191Z,5.65
2023-01-05T00:09:01.784Z,5.82
2023-01-05T00:11:47.401Z,6.25
2023-01-05T00:14:40.875Z,5.70
2023-01-05T00:17:29.263Z,4.90
2023-01-05T00:20:14.565Z,5.85
2023-01-05T00:22:46.560Z,4.65
2023-01-05T00:25:21.798Z,5.85
2023-01-05T00:27:51.416Z,4.75
2023-01-05T00:30:21.128Z,3.95
2023-01-05T00:32:48.048Z,4.80
2023-01-05T00:35:16.276Z,5.63
2023-01-05T00:37:43.671Z,5.53
2023-01-05T00:40:13.089Z,4.95
2023-01-05T00:42:39.867Z,4.60
2023-01-05T00:45:08.806Z,4.47
2023-01-05T00:47:35.385Z,4.20
2023-01-05T00:50:02.054Z,4.85
2023-01-05T00:52:28.640Z,4.40
2023-01-05T00:54:55.210Z,5.05
2023-01-05T00:57:21.805Z,3.47
2023-01-05T00:59:48.502Z,3.35
2023-01-05T01:02:15.291Z,6.53
2023-01-05T01:04:42.125Z,5.18
2023-01-05T01:07:08.768Z,5.30
2023-01-05T01:09:35.579Z,3.92
2023-01-05T01:12:02.204Z,4.13
2023-01-05T01:14:28.921Z,3.75
2023-01-05T01:16:55.635Z,3.95
2023-01-05T01:19:24.711Z,5.03
2023-01-05T01:21:51.474Z,3.78
2023-01-05T01:24:24.633Z,7.22
2023-01-05T01:26:51.527Z,5.22
2023-01-05T01:29:18.461Z,4.50
2023-01-05T01:31:49.274Z,4.35
2023-01-05T01:34:16.204Z,3.88
2023-01-05T01:36:43.346Z,5.68
2023-01-05T01:39:10.763Z,5.93
2023-01-05T01:41:37.504Z,6.72
2023-01-05T01:44:42.735Z,5.63
2023-01-05T01:47:21.983Z,5.78
2023-01-05T01:49:49.228Z,5.97
2023-01-05T01:52:15.947Z,3.63
2023-01-05T01:54:42.761Z,4.90
2023-01-05T01:57:13.000Z,5.72
2023-01-05T01:59:40.131Z,5.32
2023-01-05T02:02:08.700Z,6.22
2023-01-05T02:04:37.733Z,5.65
2023-01-05T02:07:07.660Z,4.90
2023-01-05T02:09:34.445Z,4.70
2023-01-05T02:12:27.230Z,4.93
2023-01-05T02:15:25.813Z,6.13
2023-01-05T02:18:08.764Z,5.05
2023-01-05T02:20:38.377Z,4.03
2023-01-05T02:23:42.911Z,4.97
2023-01-05T02:26:34.053Z,6.53
2023-01-05T02:29:03.688Z,4.10
2023-01-05T02:31:34.804Z,3.33
2023-01-05T02:34:28.574Z,4.28
2023-01-05T02:37:01.838Z,5.75
2023-01-05T02:39:40.958Z,4.95
2023-01-05T02:42:17.464Z,4.80
2023-01-05T02:44:45.004Z,6.22
2023-01-05T02:47:29.700Z,3.90
2023-01-05T02:50:04.425Z,4.50
2023-01-05T02:52:39.598Z,4.95
2023-01-05T02:55:09.977Z,5.25
2023-01-05T02:57:48.190Z,6.32
2023-01-05T03:00:18.767Z,3.20
2023-01-05T03:02:49.463Z,4.22
2023-01-05T03:05:44.322Z,5.80
2023-01-05T03:08:25.109Z,5.32
2023-01-05T03:11:24.040Z,5.30
2023-01-05T03:14:16.513Z,7.38
2023-01-05T03:16:45.667Z,3.05
2023-01-05T03:19:33.633Z,5.63
2023-01-05T03:22:23.053Z,6.25
2023-01-05T03:25:09.126Z,5.63
2023-01-05T03:27:55.109Z,7.05
2023-01-05T03:30:48.570Z,5.00
2023-01-05T03:33:44.159Z,6.05
2023-01-05T03:36:13.211Z,6.38
2023-01-05T03:38:45.568Z,5.03
2023-01-05T03:43:42.473Z,5.50
2023-01-05T03:46:20.599Z,7.03
2023-01-05T03:48:47.913Z,6.40
2023-01-05T03:51:16.117Z,4.72
2023-01-05T03:53:43.441Z,5.65
2023-01-05T03:56:10.407Z,7.63
2023-01-05T03:58:37.399Z,5.13
2023-01-05T04:01:04.688Z,8.00
2023-01-05T04:03:32.318Z,7.07
2023-01-05T04:05:59.261Z,5.45
2023-01-05T04:08:25.855Z,6.28
2023-01-05T04:10:56.232Z,8.98
2023-01-05T04:13:22.991Z,6.22
2023-01-05T04:15:49.617Z,5.72
2023-01-05T04:18:16.281Z,4.50
2023-01-05T04:20:42.852Z,6.35
2023-01-05T04:23:09.432Z,4.95
2023-01-05T04:25:36.023Z,6.10
2023-01-05T04:28:03.476Z,4.07
2023-01-05T04:30:30.034Z,6.13
2023-01-05T04:32:56.662Z,6.28
2023-01-05T04:35:23.199Z,3.75
2023-01-05T04:37:49.757Z,6.10
2023-01-05T04:40:16.408Z,5.13
2023-01-05T04:42:42.964Z,8.20
2023-01-05T04:45:10.449Z,9.13
2023-01-05T04:47:37.089Z,7.53
2023-01-05T04:50:04.441Z,8.02
2023-01-05T04:52:31.046Z,4.78
2023-01-05T04:54:57.645Z,3.55
2023-01-05T04:57:24.260Z,4.50
2023-01-05T04:59:50.828Z,3.50
2023-01-05T05:02:17.504Z,4.65
2023-01-05T05:04:44.143Z,4.95
2023-01-05T05:07:10.785Z,4.63
2023-01-05T05:09:37.365Z,6.18
2023-01-05T05:12:04.049Z,3.22
2023-01-05T05:14:30.674Z,4.88
2023-01-05T05:16:57.245Z,6.45
2023-01-05T05:19:24.089Z,5.97
2023-01-05T05:21:50.706Z,3.97
2023-01-05T05:24:17.275Z,5.82
2023-01-05T05:26:43.918Z,4.95
2023-01-05T05:29:10.523Z,5.65
2023-01-05T05:31:37.260Z,5.75
2023-01-05T05:34:04.195Z,4.70
2023-01-05T05:36:31.977Z,7.15
2023-01-05T05:38:58.760Z,5.65
2023-01-05T05:41:25.623Z,4.80
2023-01-05T05:43:52.324Z,5.03
2023-01-05T05:46:18.988Z,5.38
2023-01-05T05:48:45.679Z,7.38
2023-01-05T05:51:12.251Z,8.85
2023-01-05T05:53:38.817Z,8.07
2023-01-05T05:56:05.625Z,5.47
2023-01-05T05:58:32.419Z,5.50
2023-01-05T06:01:01.837Z,5.97
2023-01-05T06:03:28.571Z,6.38
2023-01-05T06:05:55.266Z,5.03
2023-01-05T06:08:21.948Z,7.28
2023-01-05T06:10:50.876Z,6.22
2023-01-05T06:13:18.546Z,6.95
2023-01-05T06:15:45.128Z,6.20
2023-01-05T06:18:11.702Z,6.55
2023-01-05T06:20:38.352Z,6.57
2023-01-05T06:23:05.259Z,5.13
2023-01-05T06:25:31.979Z,5.05
2023-01-05T06:27:58.762Z,4.93
2023-01-05T06:30:25.752Z,4.88
2023-01-05T06:32:52.631Z,5.65
2023-01-05T06:35:19.223Z,8.45
2023-01-05T06:37:45.871Z,5.88
2023-01-05T06:40:13.442Z,6.93
2023-01-05T06:42:40.529Z,6.78
2023-01-05T06:45:09.550Z,4.03
2023-01-05T06:47:36.146Z,6.57
2023-01-05T06:50:02.828Z,4.65
2023-01-05T06:52:29.476Z,4.35
2023-01-05T06:54:56.045Z,5.47
2023-01-05T06:57:22.875Z,6.95
2023-01-05T06:59:49.554Z,5.95
2023-01-05T07:02:17.592Z,5.28
2023-01-05T07:04:44.317Z,5.80
2023-01-05T07:07:15.716Z,4.70
2023-01-05T07:09:42.828Z,6.47
2023-01-05T07:12:09.364Z,5.28
2023-01-05T07:14:36.214Z,4.45
2023-01-05T07:17:02.903Z,5.53
2023-01-05T07:19:29.619Z,3.92
2023-01-05T07:21:57.365Z,5.55
2023-01-05T07:24:24.416Z,6.43
2023-01-05T07:26:51.145Z,6.85
2023-01-05T07:29:17.849Z,6.63
2023-01-05T07:31:44.473Z,4.32
2023-01-05T07:34:11.326Z,3.80
2023-01-05T07:36:37.941Z,5.32
2023-01-05T07:39:04.651Z,5.60
2023-01-05T07:41:31.256Z,4.97
2023-01-05T07:43:57.847Z,5.95
2023-01-05T07:46:24.624Z,4.10
2023-01-05T07:48:51.281Z,5.93
2023-01-05T07:51:18.174Z,4.25
2023-01-05T07:53:45.000Z,5.78
2023-01-05T07:56:12.795Z,4.10
2023-01-05T07:58:39.618Z,4.78
2023-01-05T08:01:08.800Z,4.55
2023-01-05T08:03:35.881Z,5.65
2023-01-05T08:06:07.686Z,5.60
2023-01-05T08:08:34.600Z,4.13
2023-01-05T08:11:04.320Z,5.65
2023-01-05T08:13:49.541Z,5.80
2023-01-05T08:16:16.354Z,5.93
2023-01-05T08:18:43.001Z,4.45
2023-01-05T08:21:09.816Z,8.07
2023-01-05T08:23:37.657Z,6.10
2023-01-05T08:26:11.079Z,6.20
2023-01-05T08:28:38.380Z,6.75
2023-01-05T08:31:11.533Z,6.03
2023-01-05T08:33:38.149Z,4.93
2023-01-05T08:36:10.401Z,5.85
2023-01-05T08:38:37.426Z,5.35
2023-01-05T08:41:04.791Z,4.82
2023-01-05T08:43:31.513Z,4.95
2023-01-05T08:45:58.140Z,5.78
2023-01-05T08:48:24.911Z,3.95
2023-01-05T08:50:51.522Z,7.32
2023-01-05T08:53:18.206Z,4.47
2023-01-05T08:55:44.783Z,4.22
2023-01-05T08:58:12.240Z,6.65
2023-01-05T09:00:38.821Z,5.70
2023-01-05T09:03:06.380Z,4.40
2023-01-05T09:05:33.036Z,6.80
2023-01-05T09:07:59.645Z,4.78
2023-01-05T09:10:26.253Z,4.28
2023-01-05T09:12:52.844Z,5.15
2023-01-05T09:15:19.454Z,4.38
2023-01-05T09:17:46.064Z,4.75
2023-01-05T09:20:12.679Z,5.40
2023-01-05T09:22:39.330Z,4.75
2023-01-05T09:25:06.270Z,2.88
2023-01-05T09:27:32.920Z,3.83
2023-01-05T09:29:59.574Z,6.38
2023-01-05T09:32:26.298Z,5.93
2023-01-05T09:34:52.965Z,2.92
2023-01-05T09:37:19.831Z,4.40
2023-01-05T09:39:47.526Z,6.75
2023-01-05T09:42:21.704Z,5.25
2023-01-05T09:44:57.071Z,5.25
2023-01-05T09:47:39.778Z,4.93
2023-01-05T09:50:11.995Z,6.55
2023-01-05T09:52:39.423Z,4.05
2023-01-05T09:55:17.510Z,4.18
2023-01-05T09:58:07.674Z,5.50
2023-01-05T10:00:35.910Z,3.15
2023-01-05T10:03:13.056Z,5.70
2023-01-05T10:05:47.251Z,4.22
2023-01-05T10:08:33.824Z,4.78
2023-01-05T10:11:45.598Z,2.10
2023-01-05T10:14:23.107Z,3.13
2023-01-05T10:16:53.850Z,2.30
2023-01-05T10:19:30.042Z,4.47
2023-01-05T10:22:23.132Z,3.50
2023-01-05T10:25:10.011Z,2.60
2023-01-05T10:28:00.577Z,3.63
2023-01-05T10:30:36.987Z,3.42
2023-01-05T10:33:35.430Z,3.70
2023-01-05T10:39:55.735Z,3.00
2023-01-05T10:42:45.179Z,4.40
2023-01-05T10:45:15.228Z,3.72
2023-01-05T10:47:45.003Z,2.95
2023-01-05T10:50:42.527Z,3.40
2023-01-05T10:53:22.185Z,2.92
2023-01-05T10:55:59.098Z,4.03
2023-01-05T10:58:28.185Z,4.07
2023-01-05T11:00:58.755Z,3.70
2023-01-05T11:04:23.855Z,3.22
2023-01-05T11:06:34.807Z,3.17
2023-01-05T11:09:22.324Z,3.05
2023-01-05T11:11:57.996Z,3.13
2023-01-05T11:14:26.876Z,2.47
2023-01-05T11:17:00.243Z,2.97
2023-01-05T11:19:31.930Z,3.95
2023-01-05T11:22:02.174Z,3.38
2023-01-05T11:24:36.823Z,2.70
2023-01-05T11:27:23.310Z,4.03
2023-01-05T11:30:14.882Z,4.75
2023-01-05T11:32:45.774Z,2.05
2023-01-05T11:35:30.615Z,2.92
2023-01-05T11:37:58.119Z,3.38
2023-01-05T11:40:29.392Z,3.53
2023-01-05T11:42:56.195Z,2.85
2023-01-05T11:45:25.883Z,3.75
2023-01-05T11:47:56.811Z,3.20
2023-01-05T11:50:26.366Z,2.85
2023-01-05T11:52:55.044Z,6.40
2023-01-05T11:55:33.063Z,4.80
2023-01-05T11:58:22.515Z,3.10
2023-01-05T12:01:21.886Z,3.13
2023-01-05T12:03:58.656Z,4.65
2023-01-05T12:06:34.601Z,4.88
2023-01-05T12:09:06.137Z,5.47
2023-01-05T12:11:45.415Z,4.13
2023-01-05T12:14:21.804Z,3.53
2023-01-05T12:16:57.943Z,2.28
2023-01-05T12:19:33.615Z,3.60
2023-01-05T12:22:03.158Z,3.58
2023-01-05T12:24:51.051Z,2.75
2023-01-05T12:27:17.657Z,2.45
2023-01-05T12:36:39.150Z,2.70
2023-01-05T12:39:49.167Z,2.50
2023-01-05T12:42:37.616Z,2.60
2023-01-05T12:45:28.091Z,2.45
2023-01-05T12:48:10.331Z,2.70
2023-01-05T12:50:47.799Z,4.43
2023-01-05T12:53:55.762Z,4.32
2023-01-05T12:56:31.297Z,3.15
2023-01-05T12:59:18.384Z,2.53
2023-01-05T13:01:54.257Z,3.15
2023-01-05T13:04:47.015Z,2.78
2023-01-05T13:07:29.285Z,3.38
2023-01-05T13:10:38.965Z,3.80
2023-01-05T13:13:16.850Z,4.13
2023-01-05T13:16:10.920Z,3.20
2023-01-05T13:18:41.869Z,4.18
2023-01-05T13:21:14.858Z,3.42
2023-01-05T13:23:45.666Z,4.53
2023-01-05T13:26:18.258Z,4.65
2023-01-05T13:28:50.869Z,4.68
2023-01-05T13:31:42.932Z,2.50
2023-01-05T13:34:18.607Z,3.35
2023-01-05T13:37:03.599Z,2.35
2023-01-05T13:40:08.395Z,2.53
2023-01-05T13:42:47.231Z,4.95
2023-01-05T13:45:23.642Z,3.33
2023-01-05T13:51:01.835Z,2.13
2023-01-05T13:53:30.565Z,1.47
2023-01-05T13:56:04.324Z,1.27
2023-01-05T13:58:42.925Z,1.75
2023-01-05T14:01:15.925Z,1.23
2023-01-05T14:03:52.522Z,2.33
2023-01-05T14:06:24.008Z,3.15
2023-01-05T14:09:07.950Z,1.43
2023-01-05T14:11:36.412Z,1.48
2023-01-05T14:14:08.362Z,1.98
2023-01-05T14:16:35.367Z,1.42
2023-01-05T14:19:20.275Z,1.90
2023-01-05T14:21:50.011Z,2.83
2023-01-05T14:24:33.543Z,2.35
2023-01-05T14:27:04.876Z,1.35
2023-01-05T14:32:37.395Z,1.52
2023-01-05T14:35:24.784Z,2.00
2023-01-05T14:37:55.994Z,3.00
2023-01-05T14:40:38.868Z,2.33
2023-01-05T14:43:26.578Z,0.82
2023-01-05T14:46:01.736Z,0.93
2023-01-05T14:48:34.593Z,0.70
2023-01-05T14:51:20.851Z,1.10
2023-01-05T14:53:49.427Z,1.38
2023-01-05T14:56:20.207Z,1.45
2023-01-05T14:59:09.878Z,2.78
2023-01-05T15:02:03.821Z,1.13
2023-01-05T15:04:37.181Z,1.02
2023-01-05T15:07:18.509Z,2.30
2023-01-05T15:12:57.158Z,2.50
2023-01-05T15:15:29.894Z,1.73
2023-01-05T15:18:25.460Z,1.80
2023-01-05T15:21:12.054Z,2.55
2023-01-05T15:24:02.866Z,2.83
2023-01-05T15:27:07.189Z,1.42
2023-01-05T15:29:36.786Z,2.05
2023-01-05T15:32:15.518Z,1.85
2023-01-05T15:34:47.173Z,3.58
2023-01-05T15:37:31.537Z,2.33
2023-01-05T15:40:03.845Z,2.28
2023-01-05T15:45:00.545Z,9.85
2023-01-05T15:47:29.557Z,7.80
2023-01-05T15:49:59.047Z,4.50
2023-01-05T15:52:35.040Z,1.88
2023-01-05T15:55:14.053Z,2.50
2023-01-05T15:57:41.284Z,3.60
2023-01-05T16:00:33.129Z,3.70
2023-01-05T16:02:59.977Z,2.83
2023-01-05T16:05:29.450Z,2.38
2023-01-05T16:08:00.269Z,5.40
2023-01-05T16:10:49.891Z,4.53
2023-01-05T16:13:19.120Z,5.47
2023-01-05T16:15:51.598Z,5.18
2023-01-05T16:18:27.183Z,6.60
2023-01-05T16:20:56.153Z,6.22
2023-01-05T16:23:42.452Z,3.72
2023-01-05T16:26:17.231Z,3.25
2023-01-05T16:28:45.207Z,5.30
2023-01-05T16:31:25.215Z,5.90
2023-01-05T16:34:12.124Z,5.35
2023-01-05T16:36:38.689Z,6.30
2023-01-05T16:39:22.489Z,5.30
2023-01-05T16:42:07.815Z,3.08
2023-01-05T16:44:36.415Z,2.80
2023-01-05T16:47:06.323Z,4.32
2023-01-05T16:49:43.467Z,4.95
2023-01-05T16:52:23.809Z,4.53
2023-01-05T16:55:27.858Z,5.03
2023-01-05T16:57:56.065Z,4.43
2023-01-05T17:00:25.684Z,5.07
2023-01-05T17:02:54.078Z,4.95
2023-01-05T17:05:26.639Z,4.32
2023-01-05T17:08:22.643Z,3.20
2023-01-05T17:10:50.023Z,4.18
2023-01-05T17:13:21.123Z,6.18
2023-01-05T17:15:50.441Z,7.07
2023-01-05T17:18:25.071Z,3.65
2023-01-05T17:20:53.371Z,3.40
2023-01-05T17:23:29.631Z,5.82
2023-01-05T17:26:12.864Z,5.53
2023-01-05T17:28:42.022Z,3.97
2023-01-05T17:31:09.781Z,4.68
2023-01-05T17:33:36.355Z,6.10
2023-01-05T17:36:03.882Z,6.88
2023-01-05T17:38:30.740Z,5.40
2023-01-05T17:40:58.491Z,3.75
2023-01-05T17:43:25.506Z,4.18
2023-01-05T17:45:52.601Z,3.42
2023-01-05T17:48:19.290Z,4.57
2023-01-05T17:50:45.853Z,3.00
2023-01-05T17:53:12.425Z,3.97
2023-01-05T17:55:39.427Z,4.57
2023-01-05T17:58:06.065Z,3.47
2023-01-05T18:00:39.440Z,6.38
2023-01-05T18:03:06.074Z,3.85
2023-01-05T18:05:32.663Z,6.38
2023-01-05T18:07:59.267Z,5.68
2023-01-05T18:10:28.104Z,5.25
2023-01-05T18:12:56.524Z,6.63
2023-01-05T18:15:23.107Z,4.78
2023-01-05T18:17:49.703Z,7.35
2023-01-05T18:20:17.707Z,10.50
2023-01-05T18:22:46.677Z,8.10
2023-01-05T18:25:13.503Z,7.22
2023-01-05T18:27:40.238Z,6.72
2023-01-05T18:30:08.055Z,6.57
2023-01-05T18:32:34.825Z,3.75
2023-01-05T18:35:04.415Z,7.20
2023-01-05T18:37:34.479Z,5.07
2023-01-05T18:40:01.278Z,6.60
2023-01-05T18:42:28.873Z,4.82
2023-01-05T18:44:55.502Z,5.60
2023-01-05T18:47:22.094Z,7.78
2023-01-05T18:49:48.667Z,5.57
2023-01-05T18:52:15.333Z,6.38
2023-01-05T18:54:42.169Z,8.63
2023-01-05T18:57:08.801Z,8.13
2023-01-05T18:59:35.914Z,7.68
2023-01-05T19:02:02.661Z,8.13
2023-01-05T19:04:29.456Z,13.75
2023-01-05T19:06:56.788Z,14.38
2023-01-05T19:09:23.425Z,8.50
2023-01-05T19:11:50.020Z,10.75
2023-01-05T19:14:17.912Z,8.45
2023-01-05T19:16:44.580Z,8.93
2023-01-05T19:19:12.772Z,8.77
2023-01-05T19:21:41.397Z,8.43
2023-01-05T19:24:19.176Z,8.38
2023-01-05T19:26:46.927Z,7.65
2023-01-05T19:29:14.268Z,12.23
2023-01-05T19:31:41.624Z,7.35
2023-01-05T19:34:09.131Z,9.30
2023-01-05T19:36:36.285Z,12.13
2023-01-05T19:39:08.559Z,8.85
2023-01-05T19:41:36.579Z,10.18
2023-01-05T19:44:03.536Z,8.35
2023-01-05T19:46:30.439Z,10.65
2023-01-05T19:48:59.105Z,9.88
2023-01-05T19:51:28.506Z,10.20
2023-01-05T19:53:59.654Z,10.73
2023-01-05T19:56:29.873Z,9.73
2023-01-05T19:58:59.953Z,7.97
2023-01-05T20:01:28.895Z,9.23
2023-01-05T20:03:56.839Z,11.18
2023-01-05T20:06:26.358Z,10.77
2023-01-05T20:08:54.683Z,10.23
2023-01-05T20:11:43.554Z,10.13
2023-01-05T20:14:14.753Z,12.50
2023-01-05T20:16:43.267Z,8.15
2023-01-05T20:19:10.758Z,11.30
2023-01-05T20:21:37.900Z,10.25
2023-01-05T20:24:08.185Z,9.85
2023-01-05T20:26:34.860Z,10.27
2023-01-05T20:29:01.625Z,11.30
2023-01-05T20:31:37.856Z,10.38
2023-01-05T20:34:09.534Z,10.15
2023-01-05T20:36:36.119Z,11.20
2023-01-05T20:39:05.976Z,11.80
2023-01-05T20:41:36.874Z,11.88
2023-01-05T20:44:03.882Z,10.18
2023-01-05T20:46:33.333Z,14.15
2023-01-05T20:49:00.539Z,11.35
2023-01-05T20:51:27.483Z,12.52
2023-01-05T20:53:55.601Z,12.82
2023-01-05T20:56:25.164Z,12.00
2023-01-05T20:58:53.471Z,14.63
2023-01-05T21:01:20.720Z,11.05
2023-01-05T21:03:48.659Z,12.93
2023-01-05T21:06:17.342Z,12.27
2023-01-05T21:08:48.645Z,13.93
2023-01-05T21:11:17.959Z,11.50
2023-01-05T21:13:46.419Z,13.02
2023-01-05T21:16:19.779Z,12.27
2023-01-05T21:18:47.034Z,12.63
2023-01-05T21:21:18.853Z,15.85
2023-01-05T21:23:47.579Z,12.40
2023-01-05T21:26:15.813Z,12.68
2023-01-05T21:28:43.853Z,12.10
2023-01-05T21:31:13.904Z,15.07
2023-01-05T21:33:40.953Z,14.90
2023-01-05T21:36:10.390Z,14.10
2023-01-05T21:39:00.812Z,15.65
2023-01-05T21:41:42.654Z,14.77
2023-01-05T21:44:11.314Z,14.48
2023-01-05T21:46:39.010Z,14.02
2023-01-05T21:49:07.244Z,12.13
2023-01-05T21:51:52.732Z,14.52
2023-01-05T21:54:38.603Z,12.02
2023-01-05T21:57:05.594Z,14.55
2023-01-05T21:59:32.184Z,12.88
2023-01-05T22:01:58.850Z,14.52
2023-01-05T22:04:25.421Z,14.15
2023-01-05T22:06:52.186Z,11.05
2023-01-05T22:09:19.107Z,13.27
2023-01-05T22:11:45.725Z,14.60
2023-01-05T22:14:12.402Z,15.10
2023-01-05T22:16:39.089Z,16.05
2023-01-05T22:19:05.724Z,15.50
2023-01-05T22:21:32.374Z,14.23
2023-01-05T22:23:59.100Z,13.73
2023-01-05T22:26:25.742Z,14.45
2023-01-05T22:28:52.792Z,11.65
2023-01-05T22:31:25.477Z,12.77
2023-01-05T22:33:54.354Z,12.68
2023-01-05T22:36:22.319Z,13.68
2023-01-05T22:38:50.179Z,11.70
2023-01-05T22:41:20.493Z,11.93
2023-01-05T22:43:48.079Z,12.63
2023-01-05T22:46:18.937Z,10.45
2023-01-05T22:48:46.975Z,10.80
2023-01-05T22:51:22.678Z,11.00
2023-01-05T22:53:49.870Z,12.25
2023-01-05T22:56:18.365Z,11.13
2023-01-05T22:58:45.278Z,11.57
2023-01-05T23:01:27.522Z,8.40
2023-01-05T23:03:55.489Z,8.60
2023-01-05T23:06:23.274Z,9.00
2023-01-05T23:08:51.206Z,9.95
2023-01-05T23:11:24.565Z,10.52
2023-01-05T23:13:52.632Z,6.90
2023-01-05T23:16:19.828Z,8.15
2023-01-05T23:18:48.695Z,9.43
2023-01-05T23:21:16.925Z,9.35
2023-01-05T23:23:44.103Z,8.57
2023-01-05T23:26:13.893Z,9.90
2023-01-05T23:28:40.734Z,9.68
2023-01-05T23:31:07.690Z,10.52
2023-01-05T23:33:35.922Z,8.20
2023-01-05T23:36:03.947Z,7.32
2023-01-05T23:38:30.732Z,7.47
2023-01-05T23:40:58.805Z,6.18
2023-01-05T23:43:27.247Z,9.40
2023-01-05T23:46:01.293Z,8.73
2023-01-05T23:48:28.777Z,8.68
2023-01-05T23:50:56.365Z,8.18
2023-01-05T23:53:23.672Z,7.20
2023-01-05T23:55:50.915Z,7.57
2023-01-05T23:58:17.794Z,7.03
